sensor_id;sensor_type;location;lat;lon;timestamp;temperature;humidity
11736;DHT22;5924;51.398;7.088;2023-11-21T00:01:54;6.20;99.90
11736;DHT22;5924;51.398;7.088;2023-11-21T00:04:20;6.30;99.90
11736;DHT22;5924;51.398;7.088;2023-11-21T00:06:46;6.30;99.90
11736;DHT22;5924;51.398;7.088;2023-11-21T00:09:13;6.30;99.90
11736;DHT22;5924;51.398;7.088;2023-11-21T00:11:41;6.30;99.90
11736;DHT22;5924;51.398;7.088;2023-11-21T00:14:07;6.30;99.90
11736;DHT22;5924;51.398;7.088;2023-11-21T00:16:33;6.30;99.90
11736;DHT22;5924;51.398;7.088;2023-11-21T00:18:59;6.30;99.90
11736;DHT22;5924;51.398;7.088;2023-11-21T00:21:25;6.30;99.90
11736;DHT22;5924;51.398;7.088;2023-11-21T00:23:51;6.30;99.90
11736;DHT22;5924;51.398;7.088;2023-11-21T00:26:16;6.30;99.90
11736;DHT22;5924;51.398;7.088;2023-11-21T00:28:42;6.30;99.90
11736;DHT22;5924;51.398;7.088;2023-11-21T00:31:08;6.30;99.90
11736;DHT22;5924;51.398;7.088;2023-11-21T00:33:33;6.30;99.90
11736;DHT22;5924;51.398;7.088;2023-11-21T00:35:59;6.30;99.90
11736;DHT22;5924;51.398;7.088;2023-11-21T00:38:26;6.30;99.90
11736;DHT22;5924;51.398;7.088;2023-11-21T00:40:52;6.40;99.90
11736;DHT22;5924;51.398;7.088;2023-11-21T00:43:24;6.40;99.90
11736;DHT22;5924;51.398;7.088;2023-11-21T00:45:50;6.40;99.90
11736;DHT22;5924;51.398;7.088;2023-11-21T00:48:16;6.40;99.90
11736;DHT22;5924;51.398;7.088;2023-11-21T00:50:43;6.40;99.90
11736;DHT22;5924;51.398;7.088;2023-11-21T00:53:09;6.40;99.90
11736;DHT22;5924;51.398;7.088;2023-11-21T00:55:35;6.40;99.90
11736;DHT22;5924;51.398;7.088;2023-11-21T00:58:01;6.30;99.90
11736;DHT22;5924;51.398;7.088;2023-11-21T01:00:29;6.20;99.90
11736;DHT22;5924;51.398;7.088;2023-11-21T01:02:55;6.20;99.90
11736;DHT22;5924;51.398;7.088;2023-11-21T01:05:21;6.10;99.90
11736;DHT22;5924;51.398;7.088;2023-11-21T01:07:46;6.10;99.90
11736;DHT22;5924;51.398;7.088;2023-11-21T01:10:12;6.10;99.90
11736;DHT22;5924;51.398;7.088;2023-11-21T01:12:38;6.10;99.90
11736;DHT22;5924;51.398;7.088;2023-11-21T01:15:07;6.20;99.90
11736;DHT22;5924;51.398;7.088;2023-11-21T01:17:33;6.10;99.90
11736;DHT22;5924;51.398;7.088;2023-11-21T01:20:02;6.10;99.90
11736;DHT22;5924;51.398;7.088;2023-11-21T01:22:31;6.10;99.90
11736;DHT22;5924;51.398;7.088;2023-11-21T01:24:57;6.10;99.90
11736;DHT22;5924;51.398;7.088;2023-11-21T01:27:23;6.10;99.90
11736;DHT22;5924;51.398;7.088;2023-11-21T01:29:48;6.10;99.90
11736;DHT22;5924;51.398;7.088;2023-11-21T01:32:14;6.10;99.90
11736;DHT22;5924;51.398;7.088;2023-11-21T01:34:40;6.20;99.90
11736;DHT22;5924;51.398;7.088;2023-11-21T01:37:05;6.20;99.90
11736;DHT22;5924;51.398;7.088;2023-11-21T01:39:31;6.20;99.90
11736;DHT22;5924;51.398;7.088;2023-11-21T01:41:57;6.20;99.90
11736;DHT22;5924;51.398;7.088;2023-11-21T01:44:26;6.20;99.90
11736;DHT22;5924;51.398;7.088;2023-11-21T01:46:52;6.20;99.90
11736;DHT22;5924;51.398;7.088;2023-11-21T01:49:19;6.20;99.90
11736;DHT22;5924;51.398;7.088;2023-11-21T01:51:48;6.30;99.90
11736;DHT22;5924;51.398;7.088;2023-11-21T01:54:16;6.30;99.90
11736;DHT22;5924;51.398;7.088;2023-11-21T01:56:44;6.20;99.90
11736;DHT22;5924;51.398;7.088;2023-11-21T01:59:12;6.20;99.90
11736;DHT22;5924;51.398;7.088;2023-11-21T02:01:39;6.20;99.90
11736;DHT22;5924;51.398;7.088;2023-11-21T02:04:05;6.20;99.90
11736;DHT22;5924;51.398;7.088;2023-11-21T02:06:30;6.20;99.90
11736;DHT22;5924;51.398;7.088;2023-11-21T02:08:56;6.20;99.90
11736;DHT22;5924;51.398;7.088;2023-11-21T02:11:22;6.30;99.90
11736;DHT22;5924;51.398;7.088;2023-11-21T02:13:47;6.20;99.90
11736;DHT22;5924;51.398;7.088;2023-11-21T02:16:15;6.30;99.90
11736;DHT22;5924;51.398;7.088;2023-11-21T02:18:41;6.30;99.90
11736;DHT22;5924;51.398;7.088;2023-11-21T02:21:07;6.30;99.90
11736;DHT22;5924;51.398;7.088;2023-11-21T02:23:33;6.30;99.90
11736;DHT22;5924;51.398;7.088;2023-11-21T02:25:59;6.30;99.90
11736;DHT22;5924;51.398;7.088;2023-11-21T02:28:24;6.40;99.90
11736;DHT22;5924;51.398;7.088;2023-11-21T02:30:53;6.40;99.90
11736;DHT22;5924;51.398;7.088;2023-11-21T02:33:23;6.30;99.90
11736;DHT22;5924;51.398;7.088;2023-11-21T02:35:48;6.40;99.90
11736;DHT22;5924;51.398;7.088;2023-11-21T02:38:14;6.30;99.90
11736;DHT22;5924;51.398;7.088;2023-11-21T02:40:41;6.30;99.90
11736;DHT22;5924;51.398;7.088;2023-11-21T02:43:07;6.40;99.90
11736;DHT22;5924;51.398;7.088;2023-11-21T02:45:33;6.40;99.90
11736;DHT22;5924;51.398;7.088;2023-11-21T02:47:58;6.40;99.90
11736;DHT22;5924;51.398;7.088;2023-11-21T02:50:24;6.40;99.90
11736;DHT22;5924;51.398;7.088;2023-11-21T02:52:50;6.50;99.90
11736;DHT22;5924;51.398;7.088;2023-11-21T02:55:16;6.40;99.90
11736;DHT22;5924;51.398;7.088;2023-11-21T02:57:42;6.40;99.90
11736;DHT22;5924;51.398;7.088;2023-11-21T03:00:08;6.40;99.90
11736;DHT22;5924;51.398;7.088;2023-11-21T03:02:35;6.40;99.90
11736;DHT22;5924;51.398;7.088;2023-11-21T03:05:06;6.40;99.90
11736;DHT22;5924;51.398;7.088;2023-11-21T03:07:31;6.40;99.90
11736;DHT22;5924;51.398;7.088;2023-11-21T03:09:57;6.40;99.90
11736;DHT22;5924;51.398;7.088;2023-11-21T03:12:23;6.40;99.90
11736;DHT22;5924;51.398;7.088;2023-11-21T03:14:48;6.40;99.90
11736;DHT22;5924;51.398;7.088;2023-11-21T03:17:14;6.30;99.90
11736;DHT22;5924;51.398;7.088;2023-11-21T03:19:43;6.40;99.90
11736;DHT22;5924;51.398;7.088;2023-11-21T03:22:09;6.40;99.90
11736;DHT22;5924;51.398;7.088;2023-11-21T03:24:35;6.40;99.90
11736;DHT22;5924;51.398;7.088;2023-11-21T03:27:01;6.50;99.90
11736;DHT22;5924;51.398;7.088;2023-11-21T03:29:27;6.50;99.90
11736;DHT22;5924;51.398;7.088;2023-11-21T03:31:52;6.50;99.90
11736;DHT22;5924;51.398;7.088;2023-11-21T03:34:26;6.50;99.90
11736;DHT22;5924;51.398;7.088;2023-11-21T03:36:52;6.50;99.90
11736;DHT22;5924;51.398;7.088;2023-11-21T03:39:20;6.50;99.90
11736;DHT22;5924;51.398;7.088;2023-11-21T03:41:46;6.50;99.90
11736;DHT22;5924;51.398;7.088;2023-11-21T03:44:12;6.50;99.90
11736;DHT22;5924;51.398;7.088;2023-11-21T03:46:38;6.50;99.90
11736;DHT22;5924;51.398;7.088;2023-11-21T03:49:03;6.50;99.90
11736;DHT22;5924;51.398;7.088;2023-11-21T03:51:29;6.40;99.90
11736;DHT22;5924;51.398;7.088;2023-11-21T03:53:55;6.40;99.90
11736;DHT22;5924;51.398;7.088;2023-11-21T03:56:20;6.50;99.90
11736;DHT22;5924;51.398;7.088;2023-11-21T03:58:49;6.50;99.90
11736;DHT22;5924;51.398;7.088;2023-11-21T04:01:22;6.40;99.90
11736;DHT22;5924;51.398;7.088;2023-11-21T04:03:49;6.40;99.90
11736;DHT22;5924;51.398;7.088;2023-11-21T04:06:14;7.60;99.90
11736;DHT22;5924;51.398;7.088;2023-11-21T04:08:40;6.50;99.90
11736;DHT22;5924;51.398;7.088;2023-11-21T04:11:06;6.50;99.90
11736;DHT22;5924;51.398;7.088;2023-11-21T04:13:31;6.40;99.90
11736;DHT22;5924;51.398;7.088;2023-11-21T04:15:57;6.40;99.90
11736;DHT22;5924;51.398;7.088;2023-11-21T04:18:22;6.40;99.90
11736;DHT22;5924;51.398;7.088;2023-11-21T04:20:51;6.50;99.90
11736;DHT22;5924;51.398;7.088;2023-11-21T04:23:16;6.50;99.90
11736;DHT22;5924;51.398;7.088;2023-11-21T04:25:42;6.50;99.90
11736;DHT22;5924;51.398;7.088;2023-11-21T04:28:08;6.50;99.90
11736;DHT22;5924;51.398;7.088;2023-11-21T04:30:34;6.50;99.90
11736;DHT22;5924;51.398;7.088;2023-11-21T04:32:59;6.50;99.90
11736;DHT22;5924;51.398;7.088;2023-11-21T04:35:25;6.40;99.90
11736;DHT22;5924;51.398;7.088;2023-11-21T04:37:51;6.40;99.90
11736;DHT22;5924;51.398;7.088;2023-11-21T04:40:16;6.40;99.90
11736;DHT22;5924;51.398;7.088;2023-11-21T04:42:42;6.40;99.90
11736;DHT22;5924;51.398;7.088;2023-11-21T04:45:08;6.40;99.90
11736;DHT22;5924;51.398;7.088;2023-11-21T04:47:35;6.40;99.90
11736;DHT22;5924;51.398;7.088;2023-11-21T04:50:02;6.40;99.90
11736;DHT22;5924;51.398;7.088;2023-11-21T04:52:28;6.40;99.90
11736;DHT22;5924;51.398;7.088;2023-11-21T04:54:54;6.40;99.90
11736;DHT22;5924;51.398;7.088;2023-11-21T04:57:20;6.50;99.90
11736;DHT22;5924;51.398;7.088;2023-11-21T04:59:48;6.50;99.90
11736;DHT22;5924;51.398;7.088;2023-11-21T05:02:13;6.40;99.90
11736;DHT22;5924;51.398;7.088;2023-11-21T05:04:39;6.50;99.90
11736;DHT22;5924;51.398;7.088;2023-11-21T05:07:05;6.50;99.90
11736;DHT22;5924;51.398;7.088;2023-11-21T05:09:31;6.50;99.90
11736;DHT22;5924;51.398;7.088;2023-11-21T05:11:58;6.50;99.90
11736;DHT22;5924;51.398;7.088;2023-11-21T05:14:23;6.50;99.90
11736;DHT22;5924;51.398;7.088;2023-11-21T05:16:49;6.50;99.90
11736;DHT22;5924;51.398;7.088;2023-11-21T05:19:16;6.50;99.90
11736;DHT22;5924;51.398;7.088;2023-11-21T05:21:42;6.50;99.90
11736;DHT22;5924;51.398;7.088;2023-11-21T05:24:08;6.50;99.90
11736;DHT22;5924;51.398;7.088;2023-11-21T05:26:33;6.40;99.90
11736;DHT22;5924;51.398;7.088;2023-11-21T05:28:59;7.50;99.90
11736;DHT22;5924;51.398;7.088;2023-11-21T05:31:24;6.40;99.90
11736;DHT22;5924;51.398;7.088;2023-11-21T05:33:50;6.40;99.90
11736;DHT22;5924;51.398;7.088;2023-11-21T05:36:16;6.40;99.90
11736;DHT22;5924;51.398;7.088;2023-11-21T05:38:41;6.40;99.90
11736;DHT22;5924;51.398;7.088;2023-11-21T05:41:07;7.60;99.90
11736;DHT22;5924;51.398;7.088;2023-11-21T05:43:36;6.40;99.90
11736;DHT22;5924;51.398;7.088;2023-11-21T05:46:02;6.40;99.90
11736;DHT22;5924;51.398;7.088;2023-11-21T05:48:27;6.40;99.90
11736;DHT22;5924;51.398;7.088;2023-11-21T05:50:53;6.40;99.90
11736;DHT22;5924;51.398;7.088;2023-11-21T05:53:18;6.40;99.90
11736;DHT22;5924;51.398;7.088;2023-11-21T05:55:44;6.40;99.90
11736;DHT22;5924;51.398;7.088;2023-11-21T05:58:10;6.30;99.90
11736;DHT22;5924;51.398;7.088;2023-11-21T06:00:36;6.40;99.90
11736;DHT22;5924;51.398;7.088;2023-11-21T06:03:02;6.30;99.90
11736;DHT22;5924;51.398;7.088;2023-11-21T06:05:28;8.00;99.90
11736;DHT22;5924;51.398;7.088;2023-11-21T06:07:54;6.30;99.90
11736;DHT22;5924;51.398;7.088;2023-11-21T06:10:23;6.30;99.90
11736;DHT22;5924;51.398;7.088;2023-11-21T06:12:49;6.30;99.90
11736;DHT22;5924;51.398;7.088;2023-11-21T06:15:15;6.30;99.90
11736;DHT22;5924;51.398;7.088;2023-11-21T06:17:42;6.30;99.90
11736;DHT22;5924;51.398;7.088;2023-11-21T06:20:11;6.30;99.90
11736;DHT22;5924;51.398;7.088;2023-11-21T06:22:43;6.30;99.90
11736;DHT22;5924;51.398;7.088;2023-11-21T06:25:10;6.30;99.90
11736;DHT22;5924;51.398;7.088;2023-11-21T06:27:39;6.30;99.90
11736;DHT22;5924;51.398;7.088;2023-11-21T06:30:05;6.30;99.90
11736;DHT22;5924;51.398;7.088;2023-11-21T06:32:32;6.30;99.90
11736;DHT22;5924;51.398;7.088;2023-11-21T06:34:58;6.30;99.90
11736;DHT22;5924;51.398;7.088;2023-11-21T06:37:30;6.30;99.90
11736;DHT22;5924;51.398;7.088;2023-11-21T06:39:56;6.30;99.90
11736;DHT22;5924;51.398;7.088;2023-11-21T06:42:24;6.40;99.90
11736;DHT22;5924;51.398;7.088;2023-11-21T06:44:50;6.40;99.90
11736;DHT22;5924;51.398;7.088;2023-11-21T06:47:19;6.40;99.90
11736;DHT22;5924;51.398;7.088;2023-11-21T06:49:51;6.40;99.90
11736;DHT22;5924;51.398;7.088;2023-11-21T06:52:17;6.40;99.90
11736;DHT22;5924;51.398;7.088;2023-11-21T06:54:43;6.50;99.90
11736;DHT22;5924;51.398;7.088;2023-11-21T06:57:09;6.50;99.90
11736;DHT22;5924;51.398;7.088;2023-11-21T06:59:35;6.80;99.90
11736;DHT22;5924;51.398;7.088;2023-11-21T07:02:01;6.50;99.90
11736;DHT22;5924;51.398;7.088;2023-11-21T07:04:26;6.50;99.90
11736;DHT22;5924;51.398;7.088;2023-11-21T07:06:54;6.50;99.90
11736;DHT22;5924;51.398;7.088;2023-11-21T07:09:20;6.50;99.90
11736;DHT22;5924;51.398;7.088;2023-11-21T07:11:49;6.60;99.90
11736;DHT22;5924;51.398;7.088;2023-11-21T07:14:15;6.60;99.90
11736;DHT22;5924;51.398;7.088;2023-11-21T07:16:42;6.60;99.90
11736;DHT22;5924;51.398;7.088;2023-11-21T07:19:08;6.60;99.90
11736;DHT22;5924;51.398;7.088;2023-11-21T07:21:35;6.60;99.90
11736;DHT22;5924;51.398;7.088;2023-11-21T07:24:02;6.60;99.90
11736;DHT22;5924;51.398;7.088;2023-11-21T07:26:28;6.60;99.90
11736;DHT22;5924;51.398;7.088;2023-11-21T07:28:54;6.60;99.90
11736;DHT22;5924;51.398;7.088;2023-11-21T07:31:20;6.50;99.90
11736;DHT22;5924;51.398;7.088;2023-11-21T07:33:46;6.60;99.90
11736;DHT22;5924;51.398;7.088;2023-11-21T07:36:15;6.60;99.90
11736;DHT22;5924;51.398;7.088;2023-11-21T07:38:42;6.60;99.90
11736;DHT22;5924;51.398;7.088;2023-11-21T07:41:08;7.60;99.90
11736;DHT22;5924;51.398;7.088;2023-11-21T07:43:35;6.60;99.90
11736;DHT22;5924;51.398;7.088;2023-11-21T07:46:04;6.60;99.90
11736;DHT22;5924;51.398;7.088;2023-11-21T07:48:30;6.60;99.90
11736;DHT22;5924;51.398;7.088;2023-11-21T07:50:57;6.70;99.90
11736;DHT22;5924;51.398;7.088;2023-11-21T07:53:24;6.70;99.90
11736;DHT22;5924;51.398;7.088;2023-11-21T07:55:51;6.70;99.90
11736;DHT22;5924;51.398;7.088;2023-11-21T07:58:17;6.80;99.90
11736;DHT22;5924;51.398;7.088;2023-11-21T08:00:44;6.80;99.90
11736;DHT22;5924;51.398;7.088;2023-11-21T08:03:09;6.90;99.90
11736;DHT22;5924;51.398;7.088;2023-11-21T08:05:36;6.90;99.90
11736;DHT22;5924;51.398;7.088;2023-11-21T08:08:02;7.00;99.90
11736;DHT22;5924;51.398;7.088;2023-11-21T08:10:28;7.10;99.90
11736;DHT22;5924;51.398;7.088;2023-11-21T08:12:53;7.20;99.90
11736;DHT22;5924;51.398;7.088;2023-11-21T08:15:19;7.20;99.90
11736;DHT22;5924;51.398;7.088;2023-11-21T08:17:46;7.30;99.90
11736;DHT22;5924;51.398;7.088;2023-11-21T08:20:12;7.50;99.90
11736;DHT22;5924;51.398;7.088;2023-11-21T08:22:37;7.50;99.90
11736;DHT22;5924;51.398;7.088;2023-11-21T08:25:06;7.60;99.90
11736;DHT22;5924;51.398;7.088;2023-11-21T08:27:33;7.70;99.90
11736;DHT22;5924;51.398;7.088;2023-11-21T08:30:03;7.80;99.90
11736;DHT22;5924;51.398;7.088;2023-11-21T08:32:29;7.80;99.90
11736;DHT22;5924;51.398;7.088;2023-11-21T08:34:57;7.80;99.90
11736;DHT22;5924;51.398;7.088;2023-11-21T08:37:23;7.80;99.90
11736;DHT22;5924;51.398;7.088;2023-11-21T08:39:49;7.80;99.90
11736;DHT22;5924;51.398;7.088;2023-11-21T08:42:15;7.80;99.90
11736;DHT22;5924;51.398;7.088;2023-11-21T08:44:40;7.90;99.90
11736;DHT22;5924;51.398;7.088;2023-11-21T08:47:07;9.70;99.90
11736;DHT22;5924;51.398;7.088;2023-11-21T08:49:32;7.80;99.90
11736;DHT22;5924;51.398;7.088;2023-11-21T08:51:58;7.90;99.90
11736;DHT22;5924;51.398;7.088;2023-11-21T08:54:27;7.90;99.90
11736;DHT22;5924;51.398;7.088;2023-11-21T08:56:53;7.90;99.90
11736;DHT22;5924;51.398;7.088;2023-11-21T08:59:20;7.90;99.90
11736;DHT22;5924;51.398;7.088;2023-11-21T09:01:47;7.90;99.90
11736;DHT22;5924;51.398;7.088;2023-11-21T09:04:12;8.00;99.90
11736;DHT22;5924;51.398;7.088;2023-11-21T09:06:39;7.90;99.90
11736;DHT22;5924;51.398;7.088;2023-11-21T09:09:05;8.00;99.90
11736;DHT22;5924;51.398;7.088;2023-11-21T09:11:32;8.10;99.90
11736;DHT22;5924;51.398;7.088;2023-11-21T09:13:59;8.10;99.90
11736;DHT22;5924;51.398;7.088;2023-11-21T09:16:26;8.10;99.90
11736;DHT22;5924;51.398;7.088;2023-11-21T09:18:51;8.20;99.90
11736;DHT22;5924;51.398;7.088;2023-11-21T09:21:17;8.20;99.90
11736;DHT22;5924;51.398;7.088;2023-11-21T09:23:44;8.20;99.90
11736;DHT22;5924;51.398;7.088;2023-11-21T09:26:10;8.30;99.90
11736;DHT22;5924;51.398;7.088;2023-11-21T09:28:35;8.40;99.90
11736;DHT22;5924;51.398;7.088;2023-11-21T09:31:06;8.40;99.90
11736;DHT22;5924;51.398;7.088;2023-11-21T09:33:34;8.50;99.90
11736;DHT22;5924;51.398;7.088;2023-11-21T09:36:00;8.50;99.90
11736;DHT22;5924;51.398;7.088;2023-11-21T09:38:26;8.50;99.90
11736;DHT22;5924;51.398;7.088;2023-11-21T09:40:54;8.50;99.90
11736;DHT22;5924;51.398;7.088;2023-11-21T09:43:21;8.50;99.90
11736;DHT22;5924;51.398;7.088;2023-11-21T09:46:01;8.50;99.90
11736;DHT22;5924;51.398;7.088;2023-11-21T09:48:30;8.60;99.90
11736;DHT22;5924;51.398;7.088;2023-11-21T09:50:58;8.60;99.90
11736;DHT22;5924;51.398;7.088;2023-11-21T09:53:26;8.60;99.90
11736;DHT22;5924;51.398;7.088;2023-11-21T09:55:55;8.60;99.90
11736;DHT22;5924;51.398;7.088;2023-11-21T09:58:22;8.60;99.90
11736;DHT22;5924;51.398;7.088;2023-11-21T10:00:53;8.60;99.90
11736;DHT22;5924;51.398;7.088;2023-11-21T10:03:19;8.60;99.90
11736;DHT22;5924;51.398;7.088;2023-11-21T10:05:45;8.70;99.90
11736;DHT22;5924;51.398;7.088;2023-11-21T10:08:12;8.70;99.90
11736;DHT22;5924;51.398;7.088;2023-11-21T10:10:44;10.30;99.90
11736;DHT22;5924;51.398;7.088;2023-11-21T10:13:18;8.80;99.90
11736;DHT22;5924;51.398;7.088;2023-11-21T10:15:50;8.80;99.90
11736;DHT22;5924;51.398;7.088;2023-11-21T10:18:16;8.80;99.90
11736;DHT22;5924;51.398;7.088;2023-11-21T10:20:42;8.80;99.90
11736;DHT22;5924;51.398;7.088;2023-11-21T10:23:09;8.80;99.90
11736;DHT22;5924;51.398;7.088;2023-11-21T10:25:37;8.80;99.90
11736;DHT22;5924;51.398;7.088;2023-11-21T10:28:03;8.90;99.90
11736;DHT22;5924;51.398;7.088;2023-11-21T10:30:36;9.00;99.90
11736;DHT22;5924;51.398;7.088;2023-11-21T10:33:03;9.00;99.90
11736;DHT22;5924;51.398;7.088;2023-11-21T10:35:59;9.00;99.90
11736;DHT22;5924;51.398;7.088;2023-11-21T10:38:26;9.10;99.90
11736;DHT22;5924;51.398;7.088;2023-11-21T10:40:54;9.20;99.90
11736;DHT22;5924;51.398;7.088;2023-11-21T10:43:24;9.40;99.90
11736;DHT22;5924;51.398;7.088;2023-11-21T10:45:50;9.50;99.90
11736;DHT22;5924;51.398;7.088;2023-11-21T10:48:16;9.70;99.90
11736;DHT22;5924;51.398;7.088;2023-11-21T10:50:43;9.70;99.90
11736;DHT22;5924;51.398;7.088;2023-11-21T10:53:09;9.70;99.90
11736;DHT22;5924;51.398;7.088;2023-11-21T10:55:37;9.60;99.90
11736;DHT22;5924;51.398;7.088;2023-11-21T10:58:03;9.50;99.90
11736;DHT22;5924;51.398;7.088;2023-11-21T11:00:31;9.50;99.90
11736;DHT22;5924;51.398;7.088;2023-11-21T11:02:57;9.60;99.90
11736;DHT22;5924;51.398;7.088;2023-11-21T11:05:29;9.80;99.90
11736;DHT22;5924;51.398;7.088;2023-11-21T11:08:05;10.10;99.90
11736;DHT22;5924;51.398;7.088;2023-11-21T11:10:31;10.00;99.90
11736;DHT22;5924;51.398;7.088;2023-11-21T11:12:58;10.00;99.90
11736;DHT22;5924;51.398;7.088;2023-11-21T11:15:25;10.00;99.90
11736;DHT22;5924;51.398;7.088;2023-11-21T11:17:51;10.00;99.90
11736;DHT22;5924;51.398;7.088;2023-11-21T11:20:18;10.00;99.90
11736;DHT22;5924;51.398;7.088;2023-11-21T11:25:59;10.00;99.90
11736;DHT22;5924;51.398;7.088;2023-11-21T11:28:43;10.00;99.90
11736;DHT22;5924;51.398;7.088;2023-11-21T11:34:23;9.80;99.90
11736;DHT22;5924;51.398;7.088;2023-11-21T11:37:06;9.80;99.90
11736;DHT22;5924;51.398;7.088;2023-11-21T11:39:38;9.90;99.90
11736;DHT22;5924;51.398;7.088;2023-11-21T11:42:08;9.90;99.90
11736;DHT22;5924;51.398;7.088;2023-11-21T11:47:31;10.10;99.90
11736;DHT22;5924;51.398;7.088;2023-11-21T11:50:09;10.10;99.90
11736;DHT22;5924;51.398;7.088;2023-11-21T11:52:51;9.80;99.90
11736;DHT22;5924;51.398;7.088;2023-11-21T11:55:20;10.30;99.90
11736;DHT22;5924;51.398;7.088;2023-11-21T11:57:48;10.40;99.90
11736;DHT22;5924;51.398;7.088;2023-11-21T12:00:35;10.40;99.90
11736;DHT22;5924;51.398;7.088;2023-11-21T12:03:09;10.40;99.90
11736;DHT22;5924;51.398;7.088;2023-11-21T12:05:35;10.40;99.90
11736;DHT22;5924;51.398;7.088;2023-11-21T12:08:04;10.30;99.90
11736;DHT22;5924;51.398;7.088;2023-11-21T12:10:32;10.20;99.90
11736;DHT22;5924;51.398;7.088;2023-11-21T12:13:00;10.20;99.90
11736;DHT22;5924;51.398;7.088;2023-11-21T12:15:27;10.20;99.90
11736;DHT22;5924;51.398;7.088;2023-11-21T12:17:55;10.30;99.90
11736;DHT22;5924;51.398;7.088;2023-11-21T12:20:23;10.40;99.90
11736;DHT22;5924;51.398;7.088;2023-11-21T12:22:56;10.40;99.90
11736;DHT22;5924;51.398;7.088;2023-11-21T12:25:26;10.30;99.90
11736;DHT22;5924;51.398;7.088;2023-11-21T12:27:57;10.10;99.90
11736;DHT22;5924;51.398;7.088;2023-11-21T12:30:28;10.00;99.90
11736;DHT22;5924;51.398;7.088;2023-11-21T12:32:56;9.90;99.90
11736;DHT22;5924;51.398;7.088;2023-11-21T12:35:30;9.80;99.90
11736;DHT22;5924;51.398;7.088;2023-11-21T12:37:56;9.80;99.90
11736;DHT22;5924;51.398;7.088;2023-11-21T12:40:25;9.70;99.90
11736;DHT22;5924;51.398;7.088;2023-11-21T12:42:58;9.60;99.90
11736;DHT22;5924;51.398;7.088;2023-11-21T12:45:28;9.60;99.90
11736;DHT22;5924;51.398;7.088;2023-11-21T12:47:56;9.50;99.90
11736;DHT22;5924;51.398;7.088;2023-11-21T12:50:26;9.50;99.90
11736;DHT22;5924;51.398;7.088;2023-11-21T12:52:58;9.50;99.90
11736;DHT22;5924;51.398;7.088;2023-11-21T12:55:24;9.40;99.90
11736;DHT22;5924;51.398;7.088;2023-11-21T12:57:55;9.40;99.90
11736;DHT22;5924;51.398;7.088;2023-11-21T13:00:30;9.30;99.90
11736;DHT22;5924;51.398;7.088;2023-11-21T13:02:58;9.30;99.90
11736;DHT22;5924;51.398;7.088;2023-11-21T13:05:26;9.20;99.90
11736;DHT22;5924;51.398;7.088;2023-11-21T13:07:52;9.20;99.90
11736;DHT22;5924;51.398;7.088;2023-11-21T13:10:22;9.20;99.90
11736;DHT22;5924;51.398;7.088;2023-11-21T13:12:51;9.10;99.90
11736;DHT22;5924;51.398;7.088;2023-11-21T13:15:17;9.10;99.90
11736;DHT22;5924;51.398;7.088;2023-11-21T13:17:44;9.10;99.90
11736;DHT22;5924;51.398;7.088;2023-11-21T13:20:13;9.00;99.90
11736;DHT22;5924;51.398;7.088;2023-11-21T13:22:52;9.00;99.90
11736;DHT22;5924;51.398;7.088;2023-11-21T13:25:23;9.00;99.90
11736;DHT22;5924;51.398;7.088;2023-11-21T13:27:49;8.90;99.90
11736;DHT22;5924;51.398;7.088;2023-11-21T13:30:16;8.90;99.90
11736;DHT22;5924;51.398;7.088;2023-11-21T13:32:44;8.90;99.90
11736;DHT22;5924;51.398;7.088;2023-11-21T13:35:12;8.90;99.90
11736;DHT22;5924;51.398;7.088;2023-11-21T13:37:48;8.90;99.90
11736;DHT22;5924;51.398;7.088;2023-11-21T13:40:15;8.80;99.90
11736;DHT22;5924;51.398;7.088;2023-11-21T13:42:45;8.90;99.90
11736;DHT22;5924;51.398;7.088;2023-11-21T13:45:11;8.90;99.90
11736;DHT22;5924;51.398;7.088;2023-11-21T13:47:38;8.90;99.90
11736;DHT22;5924;51.398;7.088;2023-11-21T13:50:05;8.90;99.90
11736;DHT22;5924;51.398;7.088;2023-11-21T13:52:39;8.90;99.90
11736;DHT22;5924;51.398;7.088;2023-11-21T13:55:05;8.90;99.90
11736;DHT22;5924;51.398;7.088;2023-11-21T13:57:37;8.90;99.90
11736;DHT22;5924;51.398;7.088;2023-11-21T14:00:04;8.90;99.90
11736;DHT22;5924;51.398;7.088;2023-11-21T14:02:36;8.80;99.90
11736;DHT22;5924;51.398;7.088;2023-11-21T14:05:07;8.90;99.90
11736;DHT22;5924;51.398;7.088;2023-11-21T14:07:35;8.90;99.90
11736;DHT22;5924;51.398;7.088;2023-11-21T14:10:05;8.90;99.90
11736;DHT22;5924;51.398;7.088;2023-11-21T14:12:33;8.80;99.90
11736;DHT22;5924;51.398;7.088;2023-11-21T14:15:01;8.90;99.90
11736;DHT22;5924;51.398;7.088;2023-11-21T14:17:30;8.80;99.90
11736;DHT22;5924;51.398;7.088;2023-11-21T14:19:56;8.80;99.90
11736;DHT22;5924;51.398;7.088;2023-11-21T14:22:21;8.80;99.90
11736;DHT22;5924;51.398;7.088;2023-11-21T14:24:47;8.90;99.90
11736;DHT22;5924;51.398;7.088;2023-11-21T14:27:15;8.80;99.90
11736;DHT22;5924;51.398;7.088;2023-11-21T14:29:41;8.80;99.90
11736;DHT22;5924;51.398;7.088;2023-11-21T14:32:10;8.80;99.90
11736;DHT22;5924;51.398;7.088;2023-11-21T14:34:35;8.80;99.90
11736;DHT22;5924;51.398;7.088;2023-11-21T14:37:02;8.80;99.90
11736;DHT22;5924;51.398;7.088;2023-11-21T14:39:28;8.80;99.90
11736;DHT22;5924;51.398;7.088;2023-11-21T14:41:55;8.70;99.90
11736;DHT22;5924;51.398;7.088;2023-11-21T14:44:25;8.70;99.90
11736;DHT22;5924;51.398;7.088;2023-11-21T14:46:58;8.70;99.90
11736;DHT22;5924;51.398;7.088;2023-11-21T14:49:24;8.60;99.90
11736;DHT22;5924;51.398;7.088;2023-11-21T14:51:53;8.60;99.90
11736;DHT22;5924;51.398;7.088;2023-11-21T14:54:34;8.60;99.90
11736;DHT22;5924;51.398;7.088;2023-11-21T14:57:07;8.60;99.90
11736;DHT22;5924;51.398;7.088;2023-11-21T14:59:43;8.60;99.90
11736;DHT22;5924;51.398;7.088;2023-11-21T15:02:10;8.60;99.90
11736;DHT22;5924;51.398;7.088;2023-11-21T15:04:46;8.50;99.90
11736;DHT22;5924;51.398;7.088;2023-11-21T15:07:13;8.50;99.90
11736;DHT22;5924;51.398;7.088;2023-11-21T15:09:39;8.50;99.90
11736;DHT22;5924;51.398;7.088;2023-11-21T15:12:08;8.50;99.90
11736;DHT22;5924;51.398;7.088;2023-11-21T15:14:47;8.40;99.90
11736;DHT22;5924;51.398;7.088;2023-11-21T15:17:15;8.40;99.90
11736;DHT22;5924;51.398;7.088;2023-11-21T15:20:02;8.40;99.90
11736;DHT22;5924;51.398;7.088;2023-11-21T15:22:28;8.30;99.90
11736;DHT22;5924;51.398;7.088;2023-11-21T15:24:54;8.30;99.90
11736;DHT22;5924;51.398;7.088;2023-11-21T15:27:19;8.30;99.90
11736;DHT22;5924;51.398;7.088;2023-11-21T15:29:45;8.30;99.90
11736;DHT22;5924;51.398;7.088;2023-11-21T15:32:11;8.30;99.90
11736;DHT22;5924;51.398;7.088;2023-11-21T15:34:38;8.20;99.90
11736;DHT22;5924;51.398;7.088;2023-11-21T15:37:05;8.20;99.90
11736;DHT22;5924;51.398;7.088;2023-11-21T15:39:33;8.20;99.90
11736;DHT22;5924;51.398;7.088;2023-11-21T15:41:59;8.20;99.90
11736;DHT22;5924;51.398;7.088;2023-11-21T15:44:27;8.20;99.90
11736;DHT22;5924;51.398;7.088;2023-11-21T15:46:53;8.10;99.90
11736;DHT22;5924;51.398;7.088;2023-11-21T15:49:19;8.10;99.90
11736;DHT22;5924;51.398;7.088;2023-11-21T15:51:58;8.10;99.90
11736;DHT22;5924;51.398;7.088;2023-11-21T15:54:26;8.20;99.90
11736;DHT22;5924;51.398;7.088;2023-11-21T15:56:52;8.10;99.90
11736;DHT22;5924;51.398;7.088;2023-11-21T15:59:20;8.00;99.90
11736;DHT22;5924;51.398;7.088;2023-11-21T16:01:49;8.00;99.90
11736;DHT22;5924;51.398;7.088;2023-11-21T16:04:15;8.00;99.90
11736;DHT22;5924;51.398;7.088;2023-11-21T16:06:43;7.90;99.90
11736;DHT22;5924;51.398;7.088;2023-11-21T16:09:08;7.90;99.90
11736;DHT22;5924;51.398;7.088;2023-11-21T16:11:46;7.90;99.90